createdAt,value
2023-02-03T00:00:19.100Z,100.00
2023-02-03T00:03:04.521Z,100.00
2023-02-03T00:05:49.537Z,100.00
2023-02-03T00:08:36.180Z,100.00
2023-02-03T00:11:21.807Z,100.00
2023-02-03T00:14:08.002Z,100.00
2023-02-03T00:16:53.356Z,100.00
2023-02-03T00:19:38.076Z,100.00
2023-02-03T00:22:23.119Z,100.00
2023-02-03T00:25:08.388Z,100.00
2023-02-03T00:27:53.664Z,100.00
2023-02-03T00:30:38.655Z,100.00
2023-02-03T00:33:23.645Z,100.00
2023-02-03T00:36:09.274Z,100.00
2023-02-03T00:38:54.609Z,100.00
2023-02-03T00:41:39.871Z,100.00
2023-02-03T00:44:25.066Z,100.00
2023-02-03T00:47:10.589Z,100.00
2023-02-03T00:49:55.889Z,100.00
2023-02-03T00:52:41.111Z,100.00
2023-02-03T00:55:26.510Z,100.00
2023-02-03T00:58:11.348Z,100.00
2023-02-03T01:00:59.707Z,100.00
2023-02-03T01:03:44.667Z,100.00
2023-02-03T01:06:29.722Z,100.00
2023-02-03T01:09:14.916Z,100.00
2023-02-03T01:12:00.002Z,100.00
2023-02-03T01:14:45.280Z,100.00
2023-02-03T01:17:30.482Z,100.00
2023-02-03T01:20:17.042Z,100.00
2023-02-03T01:23:02.329Z,100.00
2023-02-03T01:25:47.159Z,100.00
2023-02-03T01:28:32.639Z,100.00
2023-02-03T01:31:22.128Z,100.00
2023-02-03T01:34:11.418Z,100.00
2023-02-03T01:36:56.471Z,100.00
2023-02-03T01:39:41.598Z,100.00
2023-02-03T01:42:28.573Z,100.00
2023-02-03T01:45:14.008Z,100.00
2023-02-03T01:48:00.135Z,100.00
2023-02-03T01:50:44.990Z,100.00
2023-02-03T01:53:31.659Z,100.00
2023-02-03T01:56:17.370Z,100.00
2023-02-03T01:59:02.669Z,100.00
2023-02-03T02:01:48.571Z,100.00
2023-02-03T02:04:56.845Z,100.00
2023-02-03T02:07:43.752Z,100.00
2023-02-03T02:10:31.293Z,100.00
2023-02-03T02:13:18.277Z,100.00
2023-02-03T02:16:22.389Z,100.00
2023-02-03T02:19:45.492Z,100.00
2023-02-03T02:22:30.421Z,100.00
2023-02-03T02:25:49.412Z,100.00
2023-02-03T02:29:00.615Z,100.00
2023-02-03T02:32:00.359Z,100.00
2023-02-03T02:35:03.305Z,100.00
2023-02-03T02:38:29.350Z,100.00
2023-02-03T02:41:26.377Z,100.00
2023-02-03T02:44:23.479Z,100.00
2023-02-03T02:47:20.057Z,100.00
2023-02-03T02:50:11.812Z,100.00
2023-02-03T02:52:58.173Z,100.00
2023-02-03T02:55:44.606Z,100.00
2023-02-03T02:58:32.019Z,100.00
2023-02-03T03:01:17.924Z,100.00
2023-02-03T03:04:06.048Z,100.00
2023-02-03T03:06:58.384Z,100.00
2023-02-03T03:09:49.301Z,100.00
2023-02-03T03:12:43.153Z,100.00
2023-02-03T03:15:31.775Z,100.00
2023-02-03T03:18:36.089Z,100.00
2023-02-03T03:21:27.451Z,100.00
2023-02-03T03:24:18.523Z,100.00
2023-02-03T03:27:19.076Z,100.00
2023-02-03T03:30:11.649Z,100.00
2023-02-03T03:32:58.501Z,100.00
2023-02-03T03:35:58.986Z,100.00
2023-02-03T03:38:49.999Z,100.00
2023-02-03T03:41:49.949Z,100.00
2023-02-03T03:44:42.413Z,100.00
2023-02-03T03:47:56.377Z,100.00
2023-02-03T03:50:47.385Z,100.00
2023-02-03T03:53:35.363Z,100.00
2023-02-03T03:56:28.153Z,100.00
2023-02-03T03:59:16.404Z,100.00
2023-02-03T04:02:04.643Z,100.00
2023-02-03T04:04:51.062Z,100.00
2023-02-03T04:07:44.390Z,100.00
2023-02-03T04:10:38.963Z,100.00
2023-02-03T04:13:24.317Z,100.00
2023-02-03T04:16:09.570Z,100.00
2023-02-03T04:18:54.779Z,100.00
2023-02-03T04:21:40.014Z,100.00
2023-02-03T04:24:25.029Z,100.00
2023-02-03T04:27:10.953Z,100.00
2023-02-03T04:29:55.653Z,100.00
2023-02-03T04:32:41.264Z,100.00
2023-02-03T04:35:26.716Z,100.00
2023-02-03T04:38:11.823Z,100.00
2023-02-03T04:40:56.755Z,100.00
2023-02-03T04:43:41.792Z,100.00
2023-02-03T04:46:26.872Z,100.00
2023-02-03T04:49:11.828Z,100.00
2023-02-03T04:51:56.807Z,100.00
2023-02-03T04:54:41.954Z,100.00
2023-02-03T04:57:27.292Z,100.00
2023-02-03T05:00:13.376Z,100.00
2023-02-03T05:02:58.611Z,100.00
2023-02-03T05:05:44.201Z,100.00
2023-02-03T05:08:30.525Z,100.00
2023-02-03T05:11:15.709Z,100.00
2023-02-03T05:14:00.819Z,100.00
2023-02-03T05:16:46.564Z,100.00
2023-02-03T05:19:31.703Z,100.00
2023-02-03T05:22:16.739Z,100.00
2023-02-03T05:25:02.847Z,100.00
2023-02-03T05:27:48.243Z,100.00
2023-02-03T05:30:33.528Z,100.00
2023-02-03T05:33:19.036Z,100.00
2023-02-03T05:36:04.532Z,100.00
2023-02-03T05:38:49.751Z,100.00
2023-02-03T05:41:53.076Z,100.00
2023-02-03T05:44:37.976Z,100.00
2023-02-03T05:47:22.903Z,100.00
2023-02-03T05:50:08.361Z,100.00
2023-02-03T05:52:53.368Z,100.00
2023-02-03T05:55:38.370Z,100.00
2023-02-03T05:58:23.725Z,100.00
2023-02-03T06:01:08.964Z,100.00
2023-02-03T06:03:53.925Z,100.00
2023-02-03T06:06:39.257Z,100.00
2023-02-03T06:09:24.189Z,100.00
2023-02-03T06:12:09.146Z,100.00
2023-02-03T06:14:54.324Z,100.00
2023-02-03T06:17:39.758Z,100.00
2023-02-03T06:20:24.938Z,100.00
2023-02-03T06:23:09.780Z,100.00
2023-02-03T06:25:55.486Z,100.00
2023-02-03T06:28:40.822Z,100.00
2023-02-03T06:31:26.378Z,100.00
2023-02-03T06:34:11.352Z,100.00
2023-02-03T06:36:56.575Z,100.00
2023-02-03T06:39:41.618Z,100.00
2023-02-03T06:42:26.826Z,100.00
2023-02-03T06:45:12.079Z,100.00
2023-02-03T06:47:57.009Z,100.00
2023-02-03T06:50:43.175Z,100.00
2023-02-03T06:53:28.487Z,100.00
2023-02-03T06:56:13.358Z,100.00
2023-02-03T06:58:58.933Z,100.00
2023-02-03T07:01:44.109Z,100.00
2023-02-03T07:04:30.163Z,100.00
2023-02-03T07:07:15.026Z,100.00
2023-02-03T07:10:02.829Z,100.00
2023-02-03T07:12:48.023Z,100.00
2023-02-03T07:15:33.710Z,100.00
2023-02-03T07:18:45.240Z,100.00
2023-02-03T07:21:26.635Z,100.00
2023-02-03T07:24:11.870Z,100.00
2023-02-03T07:26:56.744Z,100.00
2023-02-03T07:29:42.086Z,100.00
2023-02-03T07:32:27.055Z,100.00
2023-02-03T07:35:12.339Z,100.00
2023-02-03T07:37:57.207Z,100.00
2023-02-03T07:40:42.178Z,100.00
2023-02-03T07:43:27.144Z,100.00
2023-02-03T07:46:12.564Z,100.00
2023-02-03T07:48:57.872Z,100.00
2023-02-03T07:51:45.313Z,100.00
2023-02-03T07:54:30.500Z,100.00
2023-02-03T07:57:15.654Z,100.00
2023-02-03T08:00:00.505Z,100.00
2023-02-03T08:02:47.000Z,100.00
2023-02-03T08:05:32.333Z,100.00
2023-02-03T08:08:17.618Z,100.00
2023-02-03T08:11:03.082Z,100.00
2023-02-03T08:13:48.265Z,100.00
2023-02-03T08:16:33.608Z,100.00
2023-02-03T08:19:18.659Z,100.00
2023-02-03T08:22:03.618Z,100.00
2023-02-03T08:24:49.290Z,100.00
2023-02-03T08:27:34.787Z,100.00
2023-02-03T08:30:19.755Z,100.00
2023-02-03T08:33:05.036Z,100.00
2023-02-03T08:35:50.866Z,100.00
2023-02-03T08:38:36.473Z,100.00
2023-02-03T08:41:21.733Z,100.00
2023-02-03T08:44:07.104Z,100.00
2023-02-03T08:46:53.513Z,100.00
2023-02-03T08:49:41.867Z,100.00
2023-02-03T08:52:26.930Z,100.00
2023-02-03T08:55:12.448Z,100.00
2023-02-03T08:57:57.676Z,100.00
2023-02-03T09:00:43.310Z,100.00
2023-02-03T09:03:28.315Z,100.00
2023-02-03T09:06:16.520Z,100.00
2023-02-03T09:09:02.368Z,100.00
2023-02-03T09:11:48.035Z,100.00
2023-02-03T09:14:34.057Z,100.00
2023-02-03T09:17:19.497Z,100.00
2023-02-03T09:20:05.721Z,100.00
2023-02-03T09:22:50.903Z,100.00
2023-02-03T09:25:36.590Z,100.00
2023-02-03T09:28:21.915Z,100.00
2023-02-03T09:31:09.975Z,100.00
2023-02-03T09:33:55.034Z,100.00
2023-02-03T09:36:41.917Z,100.00
2023-02-03T09:39:27.870Z,100.00
2023-02-03T09:42:31.971Z,100.00
2023-02-03T09:45:29.286Z,100.00
2023-02-03T09:48:32.495Z,100.00
2023-02-03T09:51:25.259Z,100.00
2023-02-03T09:54:47.476Z,100.00
2023-02-03T09:57:43.953Z,100.00
2023-02-03T10:00:35.228Z,100.00
2023-02-03T10:03:32.540Z,100.00
2023-02-03T10:06:36.456Z,100.00
2023-02-03T10:09:39.776Z,100.00
2023-02-03T10:12:49.600Z,100.00
2023-02-03T10:15:52.735Z,100.00
2023-02-03T10:18:47.092Z,100.00
2023-02-03T10:21:55.341Z,100.00
2023-02-03T10:24:46.604Z,100.00
2023-02-03T10:27:33.467Z,100.00
2023-02-03T10:30:21.891Z,100.00
2023-02-03T10:33:13.015Z,100.00
2023-02-03T10:36:15.227Z,100.00
2023-02-03T10:39:41.734Z,100.00
2023-02-03T10:42:50.014Z,100.00
2023-02-03T10:45:38.437Z,100.00
2023-02-03T10:48:24.970Z,100.00
2023-02-03T10:51:23.655Z,100.00
2023-02-03T10:54:35.119Z,100.00
2023-02-03T10:57:20.175Z,100.00
2023-02-03T11:00:28.831Z,100.00
2023-02-03T11:03:14.196Z,100.00
2023-02-03T11:06:06.957Z,100.00
2023-02-03T11:08:52.629Z,100.00
2023-02-03T11:11:41.583Z,100.00
2023-02-03T11:14:26.813Z,100.00
2023-02-03T11:17:19.761Z,100.00
2023-02-03T11:20:15.822Z,100.00
2023-02-03T11:23:02.857Z,100.00
2023-02-03T11:25:48.473Z,100.00
2023-02-03T11:28:33.472Z,100.00
2023-02-03T11:31:23.591Z,99.38
2023-02-03T11:34:15.942Z,98.57
2023-02-03T11:37:33.354Z,97.42
2023-02-03T11:40:21.356Z,97.44
2023-02-03T11:43:16.679Z,96.90
2023-02-03T11:46:05.118Z,96.02
2023-02-03T11:49:00.113Z,95.93
2023-02-03T11:51:57.606Z,95.54
2023-02-03T11:54:51.768Z,95.17
2023-02-03T11:57:52.230Z,95.33
2023-02-03T12:00:49.237Z,95.89
2023-02-03T12:03:50.694Z,94.91
2023-02-03T12:06:58.463Z,94.48
2023-02-03T12:09:52.428Z,94.35
2023-02-03T12:12:55.971Z,93.97
2023-02-03T12:16:03.172Z,93.88
2023-02-03T12:19:00.424Z,93.07
2023-02-03T12:21:56.590Z,93.84
2023-02-03T12:24:55.476Z,93.42
2023-02-03T12:28:40.022Z,93.03
2023-02-03T12:31:42.678Z,92.49
2023-02-03T12:34:39.252Z,91.85
2023-02-03T12:37:49.811Z,90.51
2023-02-03T12:40:49.433Z,90.16
2023-02-03T12:43:43.421Z,89.82
2023-02-03T12:46:45.075Z,88.21
2023-02-03T12:49:46.957Z,87.30
2023-02-03T12:52:42.216Z,86.51
2023-02-03T12:55:38.849Z,86.91
2023-02-03T12:58:34.747Z,86.54
2023-02-03T13:01:28.108Z,86.51
2023-02-03T13:04:41.662Z,85.63
2023-02-03T13:07:33.527Z,84.44
2023-02-03T13:10:27.202Z,83.60
2023-02-03T13:13:16.435Z,83.73
2023-02-03T13:16:07.828Z,83.70
2023-02-03T13:19:01.889Z,84.22
2023-02-03T13:21:50.758Z,85.97
2023-02-03T13:24:36.147Z,85.09
2023-02-03T13:27:46.089Z,85.42
2023-02-03T13:30:38.644Z,85.67
2023-02-03T13:33:31.829Z,87.23
2023-02-03T13:36:25.779Z,86.53
2023-02-03T13:39:36.590Z,86.88
2023-02-03T13:42:30.236Z,87.23
2023-02-03T13:45:37.255Z,86.58
2023-02-03T13:48:33.660Z,85.41
2023-02-03T13:51:25.571Z,84.86
2023-02-03T13:54:21.031Z,84.25
2023-02-03T13:57:21.265Z,85.24
2023-02-03T14:00:28.216Z,85.02
2023-02-03T14:03:25.574Z,84.85
2023-02-03T14:06:36.181Z,84.58
2023-02-03T14:09:30.512Z,84.59
2023-02-03T14:12:15.231Z,83.91
2023-02-03T14:15:13.063Z,83.93
2023-02-03T14:18:01.524Z,83.58
2023-02-03T14:20:51.124Z,84.27
2023-02-03T14:23:40.061Z,85.75
2023-02-03T14:26:52.980Z,85.28
2023-02-03T14:29:37.908Z,86.65
2023-02-03T14:32:23.019Z,85.74
2023-02-03T14:35:17.773Z,85.72
2023-02-03T14:38:06.806Z,85.79
2023-02-03T14:40:59.497Z,85.78
2023-02-03T14:44:16.268Z,85.99
2023-02-03T14:47:01.316Z,86.40
2023-02-03T14:50:17.170Z,87.04
2023-02-03T14:53:23.891Z,87.20
2023-02-03T14:57:08.119Z,87.18
2023-02-03T14:59:56.403Z,86.98
2023-02-03T15:03:10.108Z,86.93
2023-02-03T15:05:58.997Z,87.01
2023-02-03T15:08:48.536Z,87.13
2023-02-03T15:11:33.950Z,86.98
2023-02-03T15:14:22.116Z,87.29
2023-02-03T15:17:23.158Z,87.21
2023-02-03T15:20:25.945Z,87.50
2023-02-03T15:23:26.627Z,87.40
2023-02-03T15:26:14.151Z,87.94
2023-02-03T15:29:02.316Z,87.92
2023-02-03T15:31:51.243Z,87.72
2023-02-03T15:34:41.662Z,87.78
2023-02-03T15:37:35.641Z,88.60
2023-02-03T15:40:23.473Z,88.49
2023-02-03T15:43:14.679Z,88.35
2023-02-03T15:46:25.844Z,88.53
2023-02-03T15:49:18.144Z,88.79
2023-02-03T15:52:07.941Z,89.01
2023-02-03T15:54:55.405Z,89.64
2023-02-03T15:57:40.793Z,89.58
2023-02-03T16:00:38.574Z,89.78
2023-02-03T16:03:29.768Z,90.28
2023-02-03T16:06:25.429Z,90.27
2023-02-03T16:09:27.369Z,90.06
2023-02-03T16:12:22.401Z,90.10
2023-02-03T16:15:23.666Z,90.74
2023-02-03T16:18:17.758Z,90.90
2023-02-03T16:21:06.997Z,91.42
2023-02-03T16:23:52.052Z,91.59
2023-02-03T16:26:38.455Z,91.81
2023-02-03T16:29:47.617Z,93.03
2023-02-03T16:32:51.350Z,94.25
2023-02-03T16:35:55.385Z,95.52
2023-02-03T16:39:06.939Z,95.89
2023-02-03T16:42:17.070Z,96.32
2023-02-03T16:45:21.355Z,96.59
2023-02-03T16:48:25.772Z,97.29
2023-02-03T16:51:15.832Z,98.14
2023-02-03T16:54:01.176Z,98.38
2023-02-03T16:56:47.400Z,98.76
2023-02-03T16:59:32.714Z,99.49
2023-02-03T17:02:18.263Z,99.46
2023-02-03T17:05:03.623Z,99.98
2023-02-03T17:07:49.172Z,100.00
2023-02-03T17:10:38.989Z,100.00
2023-02-03T17:13:24.590Z,100.00
2023-02-03T17:16:17.053Z,100.00
2023-02-03T17:19:02.289Z,100.00
2023-02-03T17:21:47.968Z,100.00
2023-02-03T17:24:32.818Z,100.00
2023-02-03T17:27:17.920Z,100.00
2023-02-03T17:30:04.214Z,100.00
2023-02-03T17:32:49.418Z,100.00
2023-02-03T17:35:34.353Z,100.00
2023-02-03T17:38:19.577Z,100.00
2023-02-03T17:53:30.697Z,100.00
2023-02-03T17:56:19.620Z,100.00
2023-02-03T17:59:05.701Z,100.00
2023-02-03T18:01:50.590Z,100.00
2023-02-03T18:04:36.222Z,100.00
2023-02-03T18:07:21.545Z,100.00
2023-02-03T18:10:06.962Z,100.00
2023-02-03T18:12:52.301Z,100.00
2023-02-03T18:15:38.503Z,100.00
2023-02-03T18:18:25.772Z,100.00
2023-02-03T18:21:13.557Z,100.00
2023-02-03T18:24:01.602Z,100.00
2023-02-03T18:26:49.768Z,100.00
2023-02-03T18:29:34.590Z,100.00
2023-02-03T18:32:20.015Z,100.00
2023-02-03T18:35:07.590Z,100.00
2023-02-03T18:37:52.460Z,100.00
2023-02-03T18:40:38.318Z,100.00
2023-02-03T18:43:23.593Z,100.00
2023-02-03T18:46:11.644Z,100.00
2023-02-03T18:48:57.179Z,100.00
2023-02-03T18:51:42.131Z,100.00
2023-02-03T18:54:29.503Z,100.00
2023-02-03T18:57:15.685Z,100.00
2023-02-03T19:00:00.791Z,100.00
2023-02-03T19:02:49.529Z,100.00
2023-02-03T19:05:34.385Z,100.00
2023-02-03T19:08:19.383Z,100.00
2023-02-03T19:11:04.803Z,100.00
2023-02-03T19:13:50.233Z,100.00
2023-02-03T19:16:35.254Z,100.00
2023-02-03T19:19:20.926Z,100.00
2023-02-03T19:22:05.955Z,100.00
2023-02-03T19:24:50.900Z,100.00
2023-02-03T19:27:36.177Z,100.00
2023-02-03T19:30:22.013Z,100.00
2023-02-03T19:33:07.013Z,100.00
2023-02-03T19:35:52.799Z,100.00
2023-02-03T19:38:38.345Z,100.00
2023-02-03T19:41:25.679Z,100.00
2023-02-03T19:44:10.735Z,100.00
2023-02-03T19:46:56.000Z,100.00
2023-02-03T19:49:41.346Z,100.00
2023-02-03T19:52:26.306Z,100.00
2023-02-03T19:55:12.210Z,100.00
2023-02-03T19:57:59.859Z,100.00
2023-02-03T20:00:44.961Z,100.00
2023-02-03T20:03:30.312Z,100.00
2023-02-03T20:06:16.181Z,100.00
2023-02-03T20:09:01.352Z,100.00
2023-02-03T20:11:46.251Z,100.00
2023-02-03T20:14:33.823Z,100.00
2023-02-03T20:17:18.927Z,100.00
2023-02-03T20:20:04.878Z,100.00
2023-02-03T20:22:50.197Z,100.00
2023-02-03T20:25:35.521Z,100.00
2023-02-03T20:28:23.094Z,100.00
2023-02-03T20:31:08.499Z,100.00
2023-02-03T20:33:53.949Z,100.00
2023-02-03T20:36:39.171Z,100.00
2023-02-03T20:39:24.388Z,100.00
2023-02-03T20:42:15.222Z,100.00
2023-02-03T20:45:00.202Z,100.00
2023-02-03T20:47:45.616Z,100.00
2023-02-03T20:50:41.563Z,100.00
2023-02-03T20:53:27.639Z,100.00
2023-02-03T20:56:18.258Z,100.00
2023-02-03T20:59:03.564Z,100.00
2023-02-03T21:01:49.120Z,100.00
2023-02-03T21:04:53.211Z,100.00
2023-02-03T21:07:39.242Z,100.00
2023-02-03T21:10:25.094Z,100.00
2023-02-03T21:13:27.877Z,100.00
2023-02-03T21:16:27.586Z,100.00
2023-02-03T21:19:21.835Z,100.00
2023-02-03T21:22:30.197Z,100.00
2023-02-03T21:25:27.098Z,100.00
2023-02-03T21:28:24.637Z,100.00
2023-02-03T21:31:23.261Z,100.00
2023-02-03T21:34:37.815Z,100.00
2023-02-03T21:37:23.004Z,100.00
2023-02-03T21:40:29.209Z,100.00
2023-02-03T21:43:17.901Z,100.00
2023-02-03T21:46:03.059Z,100.00
2023-02-03T21:48:50.826Z,100.00
2023-02-03T21:51:39.498Z,100.00
2023-02-03T21:54:33.631Z,100.00
2023-02-03T21:57:20.609Z,100.00
2023-02-03T22:00:34.601Z,100.00
2023-02-03T22:03:27.703Z,100.00
2023-02-03T22:06:18.728Z,100.00
2023-02-03T22:09:04.014Z,100.00
2023-02-03T22:11:49.246Z,100.00
2023-02-03T22:14:34.406Z,100.00
2023-02-03T22:17:19.266Z,100.00
2023-02-03T22:20:04.325Z,100.00
2023-02-03T22:22:49.324Z,100.00
2023-02-03T22:25:34.453Z,100.00
2023-02-03T22:28:19.556Z,100.00
2023-02-03T22:31:07.554Z,100.00
2023-02-03T22:33:52.555Z,100.00
2023-02-03T22:36:37.803Z,100.00
2023-02-03T22:39:22.936Z,100.00
2023-02-03T22:42:07.994Z,100.00
2023-02-03T22:44:53.189Z,100.00
2023-02-03T22:47:38.428Z,100.00
2023-02-03T22:50:34.779Z,100.00
2023-02-03T22:53:21.058Z,100.00
2023-02-03T22:56:06.026Z,100.00
2023-02-03T22:58:51.346Z,100.00
2023-02-03T23:01:36.349Z,100.00
2023-02-03T23:04:22.817Z,100.00
2023-02-03T23:07:07.784Z,100.00
2023-02-03T23:09:53.108Z,100.00
2023-02-03T23:12:38.096Z,100.00
2023-02-03T23:15:23.466Z,100.00
2023-02-03T23:18:08.494Z,100.00
2023-02-03T23:20:53.850Z,100.00
2023-02-03T23:23:39.002Z,100.00
2023-02-03T23:26:23.945Z,100.00
2023-02-03T23:29:09.134Z,100.00
2023-02-03T23:31:54.519Z,100.00
2023-02-03T23:34:57.993Z,100.00
2023-02-03T23:37:43.280Z,100.00
2023-02-03T23:40:29.211Z,100.00
2023-02-03T23:43:15.626Z,100.00
2023-02-03T23:46:00.827Z,100.00
2023-02-03T23:48:46.074Z,100.00
2023-02-03T23:51:31.373Z,100.00
2023-02-03T23:54:16.463Z,100.00
2023-02-03T23:57:01.315Z,100.00
2023-02-03T23:59:46.570Z,100.00
